createdAt,value
2023-05-22T00:01:06.800Z,18.27
2023-05-22T00:03:33.773Z,18.17
2023-05-22T00:06:00.524Z,18.10
2023-05-22T00:08:29.592Z,18.06
2023-05-22T00:10:56.574Z,18.03
2023-05-22T00:13:23.207Z,18.05
2023-05-22T00:15:49.722Z,18.09
2023-05-22T00:18:16.360Z,18.14
2023-05-22T00:20:42.903Z,18.20
2023-05-22T00:23:10.404Z,18.23
2023-05-22T00:25:37.616Z,18.28
2023-05-22T00:28:04.774Z,18.32
2023-05-22T00:30:31.894Z,18.33
2023-05-22T00:32:58.511Z,18.35
2023-05-22T00:35:25.662Z,18.34
2023-05-22T00:37:52.106Z,18.32
2023-05-22T00:40:18.675Z,18.29
2023-05-22T00:42:45.567Z,18.16
2023-05-22T00:45:14.772Z,17.98
2023-05-22T00:47:41.922Z,17.71
2023-05-22T00:50:11.090Z,17.55
2023-05-22T00:52:43.202Z,17.36
2023-05-22T00:55:11.842Z,17.21
2023-05-22T00:57:41.974Z,17.04
2023-05-22T01:00:13.194Z,16.95
2023-05-22T01:02:39.780Z,16.87
2023-05-22T01:05:07.736Z,16.70
2023-05-22T01:07:37.706Z,16.64
2023-05-22T01:10:06.171Z,16.52
2023-05-22T01:12:48.911Z,16.46
2023-05-22T01:15:31.896Z,16.39
2023-05-22T01:18:05.546Z,16.32
2023-05-22T01:20:40.811Z,16.25
2023-05-22T01:23:13.567Z,16.22
2023-05-22T01:25:49.332Z,16.20
2023-05-22T01:28:30.476Z,16.19
2023-05-22T01:31:02.613Z,16.15
2023-05-22T01:33:35.837Z,16.09
2023-05-22T01:36:03.924Z,16.00
2023-05-22T01:38:31.274Z,15.94
2023-05-22T01:40:59.446Z,15.93
2023-05-22T01:43:26.169Z,15.92
2023-05-22T01:45:53.166Z,15.89
2023-05-22T01:48:19.834Z,15.83
2023-05-22T01:50:51.372Z,15.79
2023-05-22T01:53:52.745Z,15.77
2023-05-22T01:56:30.747Z,15.81
2023-05-22T01:59:20.865Z,15.85
2023-05-22T02:01:49.904Z,15.83
2023-05-22T02:04:19.852Z,15.75
2023-05-22T02:06:47.345Z,15.67
2023-05-22T02:09:16.790Z,15.57
2023-05-22T02:11:43.498Z,15.53
2023-05-22T02:14:12.208Z,15.46
2023-05-22T02:16:38.941Z,15.38
2023-05-22T02:19:06.066Z,15.37
2023-05-22T02:21:34.204Z,15.38
2023-05-22T02:24:02.092Z,15.38
2023-05-22T02:26:28.808Z,15.38
2023-05-22T02:28:55.379Z,15.38
2023-05-22T02:31:21.948Z,15.34
2023-05-22T02:33:48.564Z,15.30
2023-05-22T02:36:15.154Z,15.26
2023-05-22T02:38:41.634Z,15.21
2023-05-22T02:41:08.455Z,15.14
2023-05-22T02:43:34.929Z,15.07
2023-05-22T02:46:01.503Z,15.04
2023-05-22T02:48:29.255Z,15.02
2023-05-22T02:50:55.819Z,15.06
2023-05-22T02:53:22.342Z,15.08
2023-05-22T02:55:48.890Z,15.11
2023-05-22T02:58:15.614Z,15.12
2023-05-22T03:00:42.180Z,15.13
2023-05-22T03:03:09.223Z,15.11
2023-05-22T03:05:35.787Z,15.07
2023-05-22T03:08:02.736Z,15.03
2023-05-22T03:10:29.837Z,14.98
2023-05-22T03:12:56.310Z,14.90
2023-05-22T03:15:22.905Z,14.87
2023-05-22T03:17:52.909Z,14.84
2023-05-22T03:20:19.476Z,14.88
2023-05-22T03:22:46.119Z,14.94
2023-05-22T03:25:13.212Z,14.96
2023-05-22T03:27:41.051Z,14.92
2023-05-22T03:30:08.381Z,14.90
2023-05-22T03:32:37.860Z,14.89
2023-05-22T03:35:06.128Z,14.83
2023-05-22T03:37:32.602Z,14.76
2023-05-22T03:39:59.144Z,14.70
2023-05-22T03:42:29.156Z,14.64
2023-05-22T03:44:56.894Z,14.59
2023-05-22T03:47:24.999Z,14.58
2023-05-22T03:49:51.485Z,14.58
2023-05-22T03:52:17.994Z,14.60
2023-05-22T03:54:44.487Z,14.62
2023-05-22T03:57:11.110Z,14.71
2023-05-22T03:59:37.771Z,14.76
2023-05-22T04:02:05.415Z,14.83
2023-05-22T04:04:34.020Z,14.86
2023-05-22T04:07:02.625Z,14.88
2023-05-22T04:09:31.688Z,14.90
2023-05-22T04:11:58.781Z,14.88
2023-05-22T04:14:26.164Z,14.89
2023-05-22T04:16:52.700Z,14.90
2023-05-22T04:19:19.205Z,14.94
2023-05-22T04:21:46.434Z,14.95
2023-05-22T04:24:13.176Z,14.92
2023-05-22T04:26:42.307Z,14.95
2023-05-22T04:29:10.439Z,14.95
2023-05-22T04:31:37.408Z,14.99
2023-05-22T04:34:05.261Z,15.04
2023-05-22T04:36:31.866Z,15.09
2023-05-22T04:39:00.379Z,15.16
2023-05-22T04:41:27.004Z,15.20
2023-05-22T04:43:54.548Z,15.26
2023-05-22T04:46:21.228Z,15.34
2023-05-22T04:48:47.868Z,15.42
2023-05-22T04:51:15.854Z,15.53
2023-05-22T04:53:42.560Z,15.65
2023-05-22T04:56:09.142Z,15.73
2023-05-22T04:58:37.848Z,15.74
2023-05-22T05:01:04.590Z,15.94
2023-05-22T05:03:31.335Z,16.01
2023-05-22T05:05:59.482Z,16.10
2023-05-22T05:08:27.298Z,16.17
2023-05-22T05:10:53.806Z,16.25
2023-05-22T05:13:20.637Z,16.33
2023-05-22T05:15:47.656Z,16.39
2023-05-22T05:18:14.351Z,16.56
2023-05-22T05:20:42.012Z,16.64
2023-05-22T05:23:10.279Z,16.79
2023-05-22T05:25:38.628Z,16.88
2023-05-22T05:28:10.714Z,16.96
2023-05-22T05:30:39.260Z,17.05
2023-05-22T05:33:26.194Z,17.16
2023-05-22T05:36:16.297Z,17.24
2023-05-22T05:38:44.617Z,17.25
2023-05-22T05:41:12.498Z,17.25
2023-05-22T05:43:38.977Z,17.23
2023-05-22T05:46:08.098Z,17.21
2023-05-22T05:48:35.170Z,17.20
2023-05-22T05:51:01.817Z,17.25
2023-05-22T05:53:32.651Z,17.36
2023-05-22T05:55:59.257Z,17.41
2023-05-22T05:58:27.945Z,17.47
2023-05-22T06:01:03.761Z,17.53
2023-05-22T06:03:31.270Z,17.62
2023-05-22T06:06:07.991Z,17.73
2023-05-22T06:08:53.392Z,17.82
2023-05-22T06:11:27.029Z,17.94
2023-05-22T06:13:54.599Z,18.07
2023-05-22T06:16:21.175Z,18.17
2023-05-22T06:18:48.438Z,18.24
2023-05-22T06:21:15.957Z,18.32
2023-05-22T06:23:42.433Z,18.40
2023-05-22T06:26:08.992Z,18.46
2023-05-22T06:28:38.729Z,18.45
2023-05-22T06:31:05.572Z,18.53
2023-05-22T06:33:34.392Z,18.62
2023-05-22T06:36:01.210Z,18.71
2023-05-22T06:38:28.356Z,18.73
2023-05-22T06:40:54.913Z,18.77
2023-05-22T06:43:24.847Z,18.85
2023-05-22T06:45:58.725Z,18.98
2023-05-22T06:48:37.683Z,19.13
2023-05-22T06:51:11.509Z,19.24
2023-05-22T06:53:39.735Z,19.25
2023-05-22T06:56:11.759Z,19.36
2023-05-22T06:58:48.861Z,19.41
2023-05-22T07:01:15.482Z,19.45
2023-05-22T07:03:49.734Z,19.49
2023-05-22T07:06:38.826Z,19.54
2023-05-22T07:09:06.203Z,19.62
2023-05-22T07:11:33.019Z,19.72
2023-05-22T07:14:01.178Z,19.81
2023-05-22T07:16:29.698Z,19.89
2023-05-22T07:18:56.462Z,19.95
2023-05-22T07:21:25.715Z,20.03
2023-05-22T07:23:52.964Z,20.11
2023-05-22T07:26:22.422Z,20.19
2023-05-22T07:28:57.121Z,20.26
2023-05-22T07:31:23.930Z,20.32
2023-05-22T07:33:51.344Z,20.34
2023-05-22T07:36:19.034Z,20.38
2023-05-22T07:38:46.479Z,20.46
2023-05-22T07:41:13.770Z,20.56
2023-05-22T07:43:40.418Z,20.70
2023-05-22T07:46:09.428Z,20.82
2023-05-22T07:48:43.972Z,20.96
2023-05-22T07:51:10.744Z,21.08
2023-05-22T07:53:37.331Z,21.13
2023-05-22T07:56:04.882Z,21.16
2023-05-22T07:58:33.941Z,21.28
2023-05-22T08:01:01.788Z,21.36
2023-05-22T08:03:28.539Z,21.39
2023-05-22T08:05:55.232Z,21.50
2023-05-22T08:08:21.774Z,21.67
2023-05-22T08:11:03.258Z,21.72
2023-05-22T08:13:31.027Z,21.87
2023-05-22T08:16:00.701Z,21.97
2023-05-22T08:18:29.223Z,22.08
2023-05-22T08:20:56.353Z,22.14
2023-05-22T08:23:22.932Z,22.33
2023-05-22T08:25:50.226Z,22.44
2023-05-22T08:28:16.960Z,22.51
2023-05-22T08:30:43.480Z,22.54
2023-05-22T08:33:10.196Z,22.65
2023-05-22T08:35:36.781Z,22.76
2023-05-22T08:38:03.290Z,22.88
2023-05-22T08:40:36.184Z,22.98
2023-05-22T08:43:03.225Z,22.95
2023-05-22T08:45:29.945Z,23.01
2023-05-22T08:47:58.694Z,23.12
2023-05-22T08:50:26.046Z,23.15
2023-05-22T08:52:57.131Z,23.25
2023-05-22T08:55:24.004Z,23.28
2023-05-22T08:57:51.575Z,23.23
2023-05-22T09:00:19.486Z,23.16
2023-05-22T09:02:47.070Z,23.16
2023-05-22T09:05:13.801Z,23.27
2023-05-22T09:07:40.724Z,23.40
2023-05-22T09:10:08.036Z,23.42
2023-05-22T09:12:34.706Z,23.51
2023-05-22T09:15:11.040Z,23.55
2023-05-22T09:17:41.041Z,23.63
2023-05-22T09:20:10.405Z,23.64
2023-05-22T09:22:38.315Z,23.72
2023-05-22T09:25:05.503Z,23.82
2023-05-22T09:27:32.047Z,23.91
2023-05-22T09:29:58.762Z,24.05
2023-05-22T09:32:29.519Z,24.23
2023-05-22T09:35:02.257Z,24.42
2023-05-22T09:37:33.967Z,24.54
2023-05-22T09:40:05.940Z,24.60
2023-05-22T09:42:35.400Z,24.72
2023-05-22T09:45:06.710Z,24.76
2023-05-22T09:47:36.711Z,24.73
2023-05-22T09:50:06.499Z,24.71
2023-05-22T09:52:34.943Z,24.77
2023-05-22T09:55:04.618Z,24.77
2023-05-22T09:57:52.217Z,24.79
2023-05-22T10:00:20.041Z,24.82
2023-05-22T10:03:08.978Z,24.87
2023-05-22T10:05:38.003Z,24.96
2023-05-22T10:08:26.106Z,24.98
2023-05-22T10:10:53.269Z,25.02
2023-05-22T10:13:23.269Z,25.03
2023-05-22T10:15:51.260Z,25.01
2023-05-22T10:18:18.238Z,25.00
2023-05-22T10:20:47.030Z,25.04
2023-05-22T10:23:16.419Z,25.16
2023-05-22T10:25:44.254Z,25.21
2023-05-22T10:28:11.220Z,25.40
2023-05-22T10:30:41.118Z,25.52
2023-05-22T10:33:36.679Z,25.69
2023-05-22T10:36:10.443Z,25.88
2023-05-22T10:39:01.118Z,25.94
2023-05-22T10:41:28.238Z,25.93
2023-05-22T10:43:56.792Z,26.06
2023-05-22T10:46:23.716Z,26.14
2023-05-22T10:48:52.936Z,26.18
2023-05-22T10:51:21.909Z,26.21
2023-05-22T10:54:06.584Z,26.39
2023-05-22T10:56:35.358Z,26.47
2023-05-22T10:59:08.252Z,26.35
2023-05-22T11:01:37.521Z,26.34
2023-05-22T11:04:13.045Z,26.37
2023-05-22T11:07:04.316Z,26.58
2023-05-22T11:09:32.757Z,26.73
2023-05-22T11:12:18.298Z,26.78
2023-05-22T11:15:08.719Z,26.99
2023-05-22T11:17:51.337Z,27.17
2023-05-22T11:20:17.874Z,27.31
2023-05-22T11:22:52.109Z,27.34
2023-05-22T11:25:20.276Z,27.38
2023-05-22T11:27:48.328Z,27.46
2023-05-22T11:30:16.311Z,27.69
2023-05-22T11:32:45.067Z,27.83
2023-05-22T11:35:18.724Z,27.84
2023-05-22T11:37:45.927Z,27.92
2023-05-22T11:40:17.875Z,27.95
2023-05-22T11:42:44.442Z,28.05
2023-05-22T11:45:11.527Z,28.24
2023-05-22T11:47:38.450Z,28.49
2023-05-22T11:50:06.796Z,28.66
2023-05-22T11:52:34.875Z,28.84
2023-05-22T11:55:01.847Z,29.03
2023-05-22T11:57:28.628Z,29.16
2023-05-22T11:59:55.173Z,29.22
2023-05-22T12:02:21.842Z,29.28
2023-05-22T12:04:53.780Z,29.42
2023-05-22T12:07:21.506Z,29.49
2023-05-22T12:09:48.998Z,29.63
2023-05-22T12:12:16.364Z,29.71
2023-05-22T12:14:46.055Z,29.75
2023-05-22T12:17:13.860Z,29.83
2023-05-22T12:19:41.368Z,29.80
2023-05-22T12:22:08.986Z,29.83
2023-05-22T12:24:40.712Z,29.68
2023-05-22T12:27:10.675Z,29.69
2023-05-22T12:29:41.302Z,29.87
2023-05-22T12:32:11.709Z,30.01
2023-05-22T12:34:46.599Z,30.27
2023-05-22T12:37:21.062Z,30.33
2023-05-22T12:39:58.222Z,30.11
2023-05-22T12:42:25.796Z,30.05
2023-05-22T12:44:57.020Z,30.12
2023-05-22T12:47:24.920Z,30.09
2023-05-22T12:49:51.687Z,29.91
2023-05-22T12:52:18.286Z,30.02
2023-05-22T12:54:44.767Z,30.12
2023-05-22T12:57:11.499Z,30.38
2023-05-22T12:59:38.091Z,30.62
2023-05-22T13:02:05.517Z,30.91
2023-05-22T13:04:32.300Z,31.16
2023-05-22T13:06:58.851Z,31.42
2023-05-22T13:09:25.479Z,31.60
2023-05-22T13:11:52.054Z,31.56
2023-05-22T13:14:18.609Z,30.95
2023-05-22T13:16:45.137Z,30.48
2023-05-22T13:19:11.734Z,30.45
2023-05-22T13:21:38.270Z,30.28
2023-05-22T13:24:04.836Z,29.82
2023-05-22T13:26:31.380Z,29.46
2023-05-22T13:28:57.919Z,29.07
2023-05-22T13:31:24.532Z,28.61
2023-05-22T13:33:51.107Z,28.40
2023-05-22T13:36:18.038Z,28.15
2023-05-22T13:38:44.571Z,27.91
2023-05-22T13:41:11.327Z,27.68
2023-05-22T13:43:37.785Z,27.47
2023-05-22T13:46:04.593Z,27.21
2023-05-22T13:48:31.193Z,26.97
2023-05-22T13:50:57.642Z,26.80
2023-05-22T13:53:24.115Z,26.65
2023-05-22T13:55:50.931Z,26.52
2023-05-22T13:58:17.534Z,26.35
2023-05-22T14:00:44.011Z,26.22
2023-05-22T14:03:11.704Z,26.09
2023-05-22T14:05:38.499Z,25.89
2023-05-22T14:08:05.335Z,25.67
2023-05-22T14:10:32.010Z,25.52
2023-05-22T14:12:58.489Z,25.34
2023-05-22T14:15:25.050Z,25.23
2023-05-22T14:17:51.688Z,25.13
2023-05-22T14:20:18.321Z,25.04
2023-05-22T14:22:56.422Z,24.85
2023-05-22T14:25:23.472Z,24.63
2023-05-22T14:27:49.919Z,24.50
2023-05-22T14:30:16.655Z,24.39
2023-05-22T14:32:43.419Z,24.31
2023-05-22T14:35:10.097Z,24.21
2023-05-22T14:37:36.761Z,24.07
2023-05-22T14:40:03.494Z,24.03
2023-05-22T14:42:30.031Z,24.12
2023-05-22T14:44:56.503Z,24.21
2023-05-22T14:47:22.946Z,24.37
2023-05-22T14:49:49.412Z,24.62
2023-05-22T14:52:15.933Z,25.17
2023-05-22T14:54:43.249Z,25.42
2023-05-22T14:57:09.835Z,25.78
2023-05-22T14:59:36.423Z,26.40
2023-05-22T15:02:03.106Z,26.35
2023-05-22T15:04:30.070Z,26.07
2023-05-22T15:06:56.693Z,25.69
2023-05-22T15:09:23.401Z,25.41
2023-05-22T15:11:51.044Z,25.05
2023-05-22T15:14:17.894Z,24.75
2023-05-22T15:16:44.521Z,24.44
2023-05-22T15:19:11.174Z,24.14
2023-05-22T15:21:37.857Z,23.92
2023-05-22T15:24:04.521Z,23.64
2023-05-22T15:26:31.083Z,23.36
2023-05-22T15:29:01.270Z,23.20
2023-05-22T15:31:28.882Z,23.07
2023-05-22T15:33:55.812Z,23.00
2023-05-22T15:36:22.987Z,22.89
2023-05-22T15:38:49.586Z,22.71
2023-05-22T15:41:16.120Z,22.53
2023-05-22T15:43:42.610Z,22.36
2023-05-22T15:46:10.468Z,22.12
2023-05-22T15:48:37.037Z,21.98
2023-05-22T15:51:03.918Z,21.86
2023-05-22T15:53:30.397Z,21.75
2023-05-22T15:55:56.896Z,21.66
2023-05-22T15:58:23.404Z,21.56
2023-05-22T16:00:49.906Z,21.50
2023-05-22T16:03:16.961Z,21.39
2023-05-22T16:05:45.544Z,21.30
2023-05-22T16:08:12.225Z,21.23
2023-05-22T16:10:41.532Z,21.16
2023-05-22T16:13:10.522Z,20.97
2023-05-22T16:15:39.638Z,20.55
2023-05-22T16:18:07.036Z,20.12
2023-05-22T16:20:34.339Z,19.82
2023-05-22T16:23:01.071Z,19.64
2023-05-22T16:25:27.705Z,19.55
2023-05-22T16:27:54.197Z,19.42
2023-05-22T16:30:21.366Z,19.34
2023-05-22T16:32:48.924Z,19.25
2023-05-22T16:35:15.967Z,19.22
2023-05-22T16:37:42.491Z,19.13
2023-05-22T16:40:09.439Z,19.07
2023-05-22T16:42:36.688Z,19.04
2023-05-22T16:45:03.670Z,19.08
2023-05-22T16:47:30.216Z,19.14
2023-05-22T16:49:56.682Z,19.17
2023-05-22T16:52:25.298Z,19.24
2023-05-22T16:54:52.520Z,19.27
2023-05-22T16:57:19.202Z,19.28
2023-05-22T16:59:45.788Z,19.31
2023-05-22T17:02:12.417Z,19.34
2023-05-22T17:04:40.116Z,19.37
2023-05-22T17:07:06.583Z,19.40
2023-05-22T17:09:33.233Z,19.43
2023-05-22T17:11:59.767Z,19.46
2023-05-22T17:14:26.385Z,19.54
2023-05-22T17:16:54.240Z,19.65
2023-05-22T17:19:21.257Z,19.70
2023-05-22T17:21:47.900Z,19.71
2023-05-22T17:24:14.781Z,19.72
2023-05-22T17:26:41.770Z,19.70
2023-05-22T17:29:08.842Z,19.66
2023-05-22T17:31:37.454Z,19.66
2023-05-22T17:34:05.449Z,19.68
2023-05-22T17:36:32.639Z,19.70
2023-05-22T17:38:59.556Z,19.65
2023-05-22T17:41:26.436Z,19.58
2023-05-22T17:43:54.618Z,19.50
2023-05-22T17:46:22.231Z,19.53
2023-05-22T17:48:48.793Z,19.55
2023-05-22T17:51:15.363Z,19.61
2023-05-22T17:53:42.210Z,19.58
2023-05-22T17:56:08.783Z,19.56
2023-05-22T17:58:35.295Z,19.50
2023-05-22T18:01:01.941Z,19.46
2023-05-22T18:03:28.554Z,19.44
2023-05-22T18:05:55.251Z,19.40
2023-05-22T18:08:21.738Z,19.34
2023-05-22T18:10:48.869Z,19.25
2023-05-22T18:13:15.499Z,19.18
2023-05-22T18:15:42.065Z,19.14
2023-05-22T18:18:10.645Z,19.12
2023-05-22T18:20:39.205Z,19.08
2023-05-22T18:23:06.252Z,19.07
2023-05-22T18:25:32.954Z,19.07
2023-05-22T18:27:59.431Z,19.08
2023-05-22T18:30:25.962Z,19.12
2023-05-22T18:32:52.651Z,19.15
2023-05-22T18:35:19.196Z,19.22
2023-05-22T18:37:46.125Z,19.27
2023-05-22T18:40:12.983Z,19.32
2023-05-22T18:42:39.480Z,19.30
2023-05-22T18:45:07.078Z,19.26
2023-05-22T18:47:33.647Z,19.27
2023-05-22T18:50:00.259Z,19.17
2023-05-22T18:52:26.822Z,19.11
2023-05-22T18:54:53.427Z,19.00
2023-05-22T18:57:19.895Z,18.91
2023-05-22T18:59:47.027Z,18.84
2023-05-22T19:02:16.315Z,18.73
2023-05-22T19:04:43.500Z,18.66
2023-05-22T19:07:10.271Z,18.55
2023-05-22T19:09:37.193Z,18.48
2023-05-22T19:12:03.966Z,18.40
2023-05-22T19:14:30.418Z,18.35
2023-05-22T19:16:59.345Z,18.32
2023-05-22T19:19:26.929Z,18.26
2023-05-22T19:21:54.147Z,18.22
2023-05-22T19:24:20.929Z,18.19
2023-05-22T19:26:47.620Z,18.17
2023-05-22T19:29:14.287Z,18.13
2023-05-22T19:31:40.820Z,18.13
2023-05-22T19:34:07.313Z,18.13
2023-05-22T19:36:34.749Z,18.13
2023-05-22T19:39:01.243Z,18.13
2023-05-22T19:41:27.748Z,18.14
2023-05-22T19:43:54.216Z,18.16
2023-05-22T19:46:21.150Z,18.18
2023-05-22T19:48:47.704Z,18.18
2023-05-22T19:51:14.276Z,18.17
2023-05-22T19:53:41.419Z,18.16
2023-05-22T19:56:07.969Z,18.14
2023-05-22T19:58:34.423Z,18.12
2023-05-22T20:01:00.985Z,18.08
2023-05-22T20:03:27.668Z,18.09
2023-05-22T20:05:54.266Z,18.04
2023-05-22T20:08:22.286Z,17.99
2023-05-22T20:10:48.882Z,17.93
2023-05-22T20:13:15.552Z,17.92
2023-05-22T20:15:42.335Z,17.87
2023-05-22T20:18:10.670Z,17.87
2023-05-22T20:20:37.272Z,17.83
2023-05-22T20:23:03.784Z,17.86
2023-05-22T20:25:30.299Z,17.84
2023-05-22T20:27:56.779Z,17.86
2023-05-22T20:30:23.286Z,17.86
2023-05-22T20:32:49.848Z,17.84
2023-05-22T20:35:20.180Z,17.81
2023-05-22T20:37:47.298Z,17.65
2023-05-22T20:40:15.001Z,17.69
2023-05-22T20:42:42.708Z,17.66
2023-05-22T20:45:14.893Z,17.61
2023-05-22T20:47:43.331Z,17.57
2023-05-22T20:50:11.013Z,17.54
2023-05-22T20:52:37.604Z,17.51
2023-05-22T20:55:04.918Z,17.49
2023-05-22T20:57:31.507Z,17.45
2023-05-22T20:59:58.524Z,17.37
2023-05-22T21:02:25.792Z,17.33
2023-05-22T21:04:52.475Z,17.30
2023-05-22T21:07:19.544Z,17.29
2023-05-22T21:09:45.997Z,17.28
2023-05-22T21:12:12.513Z,17.28
2023-05-22T21:14:40.113Z,17.28
2023-05-22T21:17:06.853Z,17.27
2023-05-22T21:19:33.456Z,17.25
2023-05-22T21:22:00.064Z,17.23
2023-05-22T21:24:26.647Z,17.19
2023-05-22T21:26:53.116Z,17.17
2023-05-22T21:29:19.539Z,17.14
2023-05-22T21:31:46.058Z,17.13
2023-05-22T21:34:12.634Z,17.13
2023-05-22T21:36:39.143Z,17.12
2023-05-22T21:39:05.640Z,17.13
2023-05-22T21:41:32.114Z,17.09
2023-05-22T21:43:58.738Z,17.05
2023-05-22T21:46:25.349Z,17.08
2023-05-22T21:48:53.547Z,17.06
2023-05-22T21:51:20.062Z,17.08
2023-05-22T21:53:46.868Z,17.11
2023-05-22T21:56:13.308Z,17.11
2023-05-22T21:58:39.825Z,17.13
2023-05-22T22:01:06.389Z,17.14
2023-05-22T22:03:32.949Z,17.13
2023-05-22T22:05:59.691Z,17.14
2023-05-22T22:08:28.245Z,17.14
2023-05-22T22:10:55.562Z,17.16
2023-05-22T22:13:22.249Z,17.18
2023-05-22T22:15:48.687Z,17.19
2023-05-22T22:18:15.805Z,17.19
2023-05-22T22:20:44.829Z,17.19
2023-05-22T22:23:12.492Z,17.16
2023-05-22T22:25:39.384Z,17.21
2023-05-22T22:28:07.158Z,17.17
2023-05-22T22:30:33.770Z,17.17
2023-05-22T22:33:00.614Z,17.19
2023-05-22T22:35:27.256Z,17.22
2023-05-22T22:37:53.717Z,17.20
2023-05-22T22:40:20.436Z,17.17
2023-05-22T22:42:46.939Z,17.14
2023-05-22T22:45:14.772Z,17.10
2023-05-22T22:47:41.379Z,17.07
2023-05-22T22:50:09.902Z,17.03
2023-05-22T22:52:37.819Z,17.01
2023-05-22T22:55:06.643Z,17.02
2023-05-22T22:57:33.194Z,16.98
2023-05-22T22:59:59.827Z,17.00
2023-05-22T23:02:26.359Z,17.01
2023-05-22T23:04:52.974Z,17.00
2023-05-22T23:07:19.501Z,16.98
2023-05-22T23:09:46.025Z,16.96
2023-05-22T23:12:12.612Z,16.93
2023-05-22T23:14:39.134Z,16.91
2023-05-22T23:17:05.798Z,16.88
2023-05-22T23:19:32.382Z,16.90
2023-05-22T23:21:58.942Z,16.90
2023-05-22T23:24:25.684Z,16.93
2023-05-22T23:26:52.931Z,16.94
2023-05-22T23:29:19.456Z,16.95
2023-05-22T23:31:47.591Z,16.93
2023-05-22T23:34:14.266Z,16.95
2023-05-22T23:36:41.061Z,16.94
2023-05-22T23:39:07.785Z,16.93
2023-05-22T23:41:35.402Z,16.97
2023-05-22T23:44:02.341Z,16.96
2023-05-22T23:46:29.493Z,16.98
2023-05-22T23:48:56.300Z,16.98
2023-05-22T23:51:22.933Z,16.96
2023-05-22T23:53:49.632Z,16.95
2023-05-22T23:56:16.979Z,16.95
2023-05-22T23:58:43.552Z,16.95
